sensor_id;sensor_type;location;lat;lon;timestamp;pressure;altitude;pressure_sealevel;temperature;humidity
62111;BME280;48102;47.526;19.072;2023-03-13T04:40:37;100630.53;;;4.40;94.14
62111;BME280;48102;47.526;19.072;2023-03-13T04:43:41;100630.53;;;4.40;94.14
62111;BME280;48102;47.526;19.072;2023-03-13T04:46:44;100639.34;;;3.88;99.04
62111;BME280;48102;47.526;19.072;2023-03-13T04:49:47;100635.72;;;3.97;100.00
62111;BME280;48102;47.526;19.072;2023-03-13T04:52:51;100640.78;;;4.06;100.00
62111;BME280;48102;47.526;19.072;2023-03-13T04:55:54;100641.63;;;4.07;100.00
62111;BME280;48102;47.526;19.072;2023-03-13T04:58:57;100645.97;;;4.08;100.00
62111;BME280;48102;47.526;19.072;2023-03-13T05:02:00;100654.50;;;4.14;100.00
62111;BME280;48102;47.526;19.072;2023-03-13T05:05:04;100660.53;;;4.18;100.00
62111;BME280;48102;47.526;19.072;2023-03-13T05:08:08;100647.41;;;4.22;97.02
62111;BME280;48102;47.526;19.072;2023-03-13T05:11:12;100656.94;;;4.25;100.00
62111;BME280;48102;47.526;19.072;2023-03-13T05:14:16;100668.00;;;4.38;100.00
62111;BME280;48102;47.526;19.072;2023-03-13T05:17:19;100667.87;;;4.44;97.37
62111;BME280;48102;47.526;19.072;2023-03-13T05:20:24;100671.31;;;4.46;98.36
62111;BME280;48102;47.526;19.072;2023-03-13T05:23:27;100666.03;;;4.50;98.99
62111;BME280;48102;47.526;19.072;2023-03-13T05:26:30;100669.25;;;4.62;97.42
62111;BME280;48102;47.526;19.072;2023-03-13T05:29:33;100671.97;;;4.57;97.48
62111;BME280;48102;47.526;19.072;2023-03-13T05:32:37;100667.69;;;4.55;97.92
62111;BME280;48102;47.526;19.072;2023-03-13T05:35:41;100678.13;;;4.55;98.18
62111;BME280;48102;47.526;19.072;2023-03-13T05:38:45;100680.66;;;4.58;96.78
62111;BME280;48102;47.526;19.072;2023-03-13T05:41:48;100680.72;;;4.53;97.51
62111;BME280;48102;47.526;19.072;2023-03-13T05:44:52;100681.88;;;4.40;97.25
62111;BME280;48102;47.526;19.072;2023-03-13T05:47:54;100681.63;;;4.52;96.60
62111;BME280;48102;47.526;19.072;2023-03-13T05:50:58;100672.13;;;4.48;98.39
62111;BME280;48102;47.526;19.072;2023-03-13T05:54:02;100672.03;;;4.54;97.98
62111;BME280;48102;47.526;19.072;2023-03-13T05:57:05;100678.91;;;4.58;98.14
62111;BME280;48102;47.526;19.072;2023-03-13T06:00:09;100669.25;;;4.62;97.29
62111;BME280;48102;47.526;19.072;2023-03-13T06:03:14;100676.12;;;4.66;98.61
62111;BME280;48102;47.526;19.072;2023-03-13T06:06:18;100676.03;;;4.70;96.64
62111;BME280;48102;47.526;19.072;2023-03-13T06:09:21;100674.31;;;4.69;95.45
62111;BME280;48102;47.526;19.072;2023-03-13T06:12:26;100674.81;;;4.88;96.09
62111;BME280;48102;47.526;19.072;2023-03-13T06:15:29;100672.88;;;4.96;95.94
62111;BME280;48102;47.526;19.072;2023-03-13T06:18:33;100667.59;;;5.01;93.12
62111;BME280;48102;47.526;19.072;2023-03-13T06:21:36;100662.38;;;5.01;91.48
62111;BME280;48102;47.526;19.072;2023-03-13T06:24:39;100668.34;;;5.04;92.23
62111;BME280;48102;47.526;19.072;2023-03-13T06:27:42;100670.13;;;5.04;92.41
62111;BME280;48102;47.526;19.072;2023-03-13T06:30:45;100667.66;;;4.96;93.80
62111;BME280;48102;47.526;19.072;2023-03-13T06:33:51;100670.19;;;5.01;93.92
62111;BME280;48102;47.526;19.072;2023-03-13T06:36:54;100664.53;;;5.21;91.18
62111;BME280;48102;47.526;19.072;2023-03-13T06:39:59;100663.97;;;5.44;90.16
62111;BME280;48102;47.526;19.072;2023-03-13T06:43:03;100669.94;;;5.50;88.18
62111;BME280;48102;47.526;19.072;2023-03-13T06:46:06;100680.91;;;5.66;87.01
62111;BME280;48102;47.526;19.072;2023-03-13T06:49:09;100681.66;;;5.70;87.95
62111;BME280;48102;47.526;19.072;2023-03-13T06:52:12;100685.22;;;5.67;87.92
62111;BME280;48102;47.526;19.072;2023-03-13T06:55:15;100681.88;;;5.62;86.37
62111;BME280;48102;47.526;19.072;2023-03-13T06:58:18;100675.00;;;5.57;86.28
62111;BME280;48102;47.526;19.072;2023-03-13T07:01:33;100680.84;;;5.68;87.27
62111;BME280;48102;47.526;19.072;2023-03-13T07:04:36;100667.44;;;5.82;84.75
62111;BME280;48102;47.526;19.072;2023-03-13T07:07:42;100671.53;;;5.93;84.37
62111;BME280;48102;47.526;19.072;2023-03-13T07:10:46;100675.72;;;6.00;85.55
62111;BME280;48102;47.526;19.072;2023-03-13T07:13:55;100677.00;;;6.17;83.17
62111;BME280;48102;47.526;19.072;2023-03-13T07:17:16;100675.03;;;6.26;82.44
62111;BME280;48102;47.526;19.072;2023-03-13T07:20:19;100675.47;;;6.42;76.38
62111;BME280;48102;47.526;19.072;2023-03-13T07:23:23;100669.25;;;6.46;76.43
62111;BME280;48102;47.526;19.072;2023-03-13T07:26:26;100659.97;;;6.66;75.51
62111;BME280;48102;47.526;19.072;2023-03-13T07:29:30;100653.69;;;6.71;72.21
62111;BME280;48102;47.526;19.072;2023-03-13T07:32:33;100648.25;;;6.79;70.99
62111;BME280;48102;47.526;19.072;2023-03-13T07:35:36;100656.06;;;6.81;73.38
62111;BME280;48102;47.526;19.072;2023-03-13T07:38:41;100655.88;;;6.87;71.11
62111;BME280;48102;47.526;19.072;2023-03-13T07:41:45;100649.88;;;7.11;67.42
62111;BME280;48102;47.526;19.072;2023-03-13T07:44:52;100654.37;;;7.08;66.84
62111;BME280;48102;47.526;19.072;2023-03-13T07:47:54;100639.41;;;7.11;65.28
62111;BME280;48102;47.526;19.072;2023-03-13T07:50:58;100647.03;;;7.19;65.50
62111;BME280;48102;47.526;19.072;2023-03-13T07:54:01;100633.06;;;7.46;63.26
62111;BME280;48102;47.526;19.072;2023-03-13T07:57:04;100631.50;;;7.67;60.56
62111;BME280;48102;47.526;19.072;2023-03-13T08:00:07;100629.41;;;7.77;60.94
62111;BME280;48102;47.526;19.072;2023-03-13T08:03:16;100629.06;;;7.88;60.49
62111;BME280;48102;47.526;19.072;2023-03-13T08:06:20;100626.94;;;7.99;59.49
62111;BME280;48102;47.526;19.072;2023-03-13T08:09:24;100623.59;;;8.19;57.00
62111;BME280;48102;47.526;19.072;2023-03-13T08:12:27;100607.22;;;8.37;57.08
62111;BME280;48102;47.526;19.072;2023-03-13T08:15:30;100613.63;;;8.28;56.95
62111;BME280;48102;47.526;19.072;2023-03-13T08:18:34;100599.81;;;8.23;57.34
62111;BME280;48102;47.526;19.072;2023-03-13T08:21:38;100605.12;;;8.47;56.66
62111;BME280;48102;47.526;19.072;2023-03-13T08:24:40;100597.06;;;8.75;54.83
62111;BME280;48102;47.526;19.072;2023-03-13T08:27:43;100594.16;;;9.04;53.93
62111;BME280;48102;47.526;19.072;2023-03-13T08:30:46;100596.41;;;9.36;53.00
62111;BME280;48102;47.526;19.072;2023-03-13T08:33:49;100586.56;;;9.41;52.05
62111;BME280;48102;47.526;19.072;2023-03-13T08:36:52;100579.22;;;9.27;51.53
62111;BME280;48102;47.526;19.072;2023-03-13T08:39:55;100588.78;;;9.29;51.84
62111;BME280;48102;47.526;19.072;2023-03-13T08:42:58;100586.59;;;9.61;51.00
62111;BME280;48102;47.526;19.072;2023-03-13T08:46:01;100590.47;;;10.14;48.93
62111;BME280;48102;47.526;19.072;2023-03-13T08:49:05;100585.69;;;10.23;47.63
62111;BME280;48102;47.526;19.072;2023-03-13T08:52:08;100582.66;;;9.92;49.06
62111;BME280;48102;47.526;19.072;2023-03-13T08:55:11;100578.44;;;9.88;50.25
62111;BME280;48102;47.526;19.072;2023-03-13T08:58:14;100559.88;;;9.70;50.11
62111;BME280;48102;47.526;19.072;2023-03-13T09:01:17;100558.47;;;9.63;50.44
62111;BME280;48102;47.526;19.072;2023-03-13T09:04:20;100567.19;;;9.84;49.93
62111;BME280;48102;47.526;19.072;2023-03-13T09:07:22;100570.66;;;9.44;50.58
62111;BME280;48102;47.526;19.072;2023-03-13T09:10:26;100568.69;;;9.49;50.36
62111;BME280;48102;47.526;19.072;2023-03-13T09:13:31;100560.38;;;9.60;48.99
62111;BME280;48102;47.526;19.072;2023-03-13T09:16:34;100567.22;;;9.64;49.13
62111;BME280;48102;47.526;19.072;2023-03-13T09:19:37;100558.78;;;9.76;49.19
62111;BME280;48102;47.526;19.072;2023-03-13T09:22:49;100565.28;;;9.88;49.49
62111;BME280;48102;47.526;19.072;2023-03-13T09:25:54;100554.72;;;9.89;49.42
62111;BME280;48102;47.526;19.072;2023-03-13T09:28:58;100545.75;;;9.93;49.09
62111;BME280;48102;47.526;19.072;2023-03-13T09:32:00;100548.44;;;9.92;48.58
62111;BME280;48102;47.526;19.072;2023-03-13T09:35:04;100547.59;;;9.91;47.98
62111;BME280;48102;47.526;19.072;2023-03-13T09:38:07;100537.28;;;10.05;48.49
62111;BME280;48102;47.526;19.072;2023-03-13T09:44:23;100533.19;;;10.58;46.30
62111;BME280;48102;47.526;19.072;2023-03-13T09:47:42;100519.94;;;10.96;45.86
62111;BME280;48102;47.526;19.072;2023-03-13T09:54:22;100520.09;;;11.64;44.60
62111;BME280;48102;47.526;19.072;2023-03-13T09:57:33;100519.47;;;11.76;44.08
62111;BME280;48102;47.526;19.072;2023-03-13T10:00:40;100517.34;;;11.65;44.46
62111;BME280;48102;47.526;19.072;2023-03-13T10:03:55;100519.00;;;11.68;45.05
62111;BME280;48102;47.526;19.072;2023-03-13T10:06:59;100502.94;;;11.38;45.04
62111;BME280;48102;47.526;19.072;2023-03-13T10:10:03;100500.19;;;11.74;45.24
62111;BME280;48102;47.526;19.072;2023-03-13T10:13:21;100492.81;;;11.98;44.04
62111;BME280;48102;47.526;19.072;2023-03-13T10:16:43;100497.03;;;12.18;43.98
62111;BME280;48102;47.526;19.072;2023-03-13T10:19:55;100497.72;;;12.37;44.13
62111;BME280;48102;47.526;19.072;2023-03-13T10:26:28;100484.28;;;12.58;45.11
62111;BME280;48102;47.526;19.072;2023-03-13T10:29:31;100490.16;;;12.63;43.13
62111;BME280;48102;47.526;19.072;2023-03-13T10:32:34;100481.69;;;12.72;43.35
62111;BME280;48102;47.526;19.072;2023-03-13T10:35:40;100475.28;;;12.76;42.95
62111;BME280;48102;47.526;19.072;2023-03-13T10:41:50;100478.09;;;12.89;44.16
62111;BME280;48102;47.526;19.072;2023-03-13T10:45:00;100484.59;;;12.83;42.89
62111;BME280;48102;47.526;19.072;2023-03-13T10:48:11;100467.09;;;12.96;42.65
62111;BME280;48102;47.526;19.072;2023-03-13T10:51:22;100474.69;;;13.17;41.78
62111;BME280;48102;47.526;19.072;2023-03-13T10:54:33;100462.00;;;13.23;41.37
62111;BME280;48102;47.526;19.072;2023-03-13T10:57:40;100460.87;;;13.27;43.29
62111;BME280;48102;47.526;19.072;2023-03-13T11:00:46;100456.84;;;13.36;42.87
62111;BME280;48102;47.526;19.072;2023-03-13T11:03:51;100441.06;;;13.35;41.35
62111;BME280;48102;47.526;19.072;2023-03-13T11:07:04;100438.66;;;13.60;40.85
62111;BME280;48102;47.526;19.072;2023-03-13T11:13:46;100418.19;;;13.76;40.27
62111;BME280;48102;47.526;19.072;2023-03-13T11:16:53;100424.94;;;13.82;40.59
62111;BME280;48102;47.526;19.072;2023-03-13T11:20:04;100416.50;;;13.75;39.94
62111;BME280;48102;47.526;19.072;2023-03-13T11:23:29;100430.03;;;13.71;40.47
62111;BME280;48102;47.526;19.072;2023-03-13T11:26:44;100422.81;;;13.59;41.64
62111;BME280;48102;47.526;19.072;2023-03-13T11:37:08;100396.94;;;14.19;40.73
62111;BME280;48102;47.526;19.072;2023-03-13T11:40:28;100380.00;;;14.22;40.33
62111;BME280;48102;47.526;19.072;2023-03-13T11:43:51;100376.13;;;14.54;39.71
62111;BME280;48102;47.526;19.072;2023-03-13T11:47:19;100374.09;;;14.85;39.72
62111;BME280;48102;47.526;19.072;2023-03-13T11:57:15;100368.19;;;15.84;39.18
62111;BME280;48102;47.526;19.072;2023-03-13T12:06:43;100348.13;;;16.16;37.33
62111;BME280;48102;47.526;19.072;2023-03-13T12:09:53;100343.56;;;16.42;36.29
62111;BME280;48102;47.526;19.072;2023-03-13T12:13:04;100339.19;;;16.17;36.35
62111;BME280;48102;47.526;19.072;2023-03-13T12:16:13;100333.69;;;16.31;37.20
62111;BME280;48102;47.526;19.072;2023-03-13T12:25:59;100299.50;;;16.97;36.48
62111;BME280;48102;47.526;19.072;2023-03-13T12:29:13;100302.66;;;17.02;35.89
62111;BME280;48102;47.526;19.072;2023-03-13T12:35:31;100299.34;;;16.52;37.66
62111;BME280;48102;47.526;19.072;2023-03-13T12:38:40;100294.50;;;16.82;37.21
62111;BME280;48102;47.526;19.072;2023-03-13T12:45:23;100282.69;;;16.62;36.06
62111;BME280;48102;47.526;19.072;2023-03-13T12:48:47;100270.44;;;16.83;37.36
62111;BME280;48102;47.526;19.072;2023-03-13T12:55:39;100240.94;;;17.53;35.64
62111;BME280;48102;47.526;19.072;2023-03-13T12:59:10;100225.94;;;17.30;35.84
62111;BME280;48102;47.526;19.072;2023-03-13T13:02:22;100232.66;;;17.68;35.79
62111;BME280;48102;47.526;19.072;2023-03-13T13:05:25;100218.94;;;18.27;35.29
62111;BME280;48102;47.526;19.072;2023-03-13T13:09:01;100218.44;;;18.75;33.82
62111;BME280;48102;47.526;19.072;2023-03-13T13:15:21;100219.00;;;20.38;31.92
62111;BME280;48102;47.526;19.072;2023-03-13T13:18:27;100229.16;;;21.66;29.92
62111;BME280;48102;47.526;19.072;2023-03-13T13:21:39;100224.66;;;21.84;29.29
62111;BME280;48102;47.526;19.072;2023-03-13T13:24:54;100236.91;;;21.41;29.49
62111;BME280;48102;47.526;19.072;2023-03-13T13:41:24;100202.97;;;32.81;18.72
62111;BME280;48102;47.526;19.072;2023-03-13T13:44:28;100190.28;;;33.49;17.73
62111;BME280;48102;47.526;19.072;2023-03-13T13:47:31;100181.19;;;29.77;19.99
62111;BME280;48102;47.526;19.072;2023-03-13T13:50:35;100170.66;;;26.98;23.10
62111;BME280;48102;47.526;19.072;2023-03-13T13:56:59;100149.84;;;24.45;25.16
62111;BME280;48102;47.526;19.072;2023-03-13T14:00:22;100148.59;;;24.80;25.92
62111;BME280;48102;47.526;19.072;2023-03-13T14:03:30;100138.59;;;28.82;22.06
62111;BME280;48102;47.526;19.072;2023-03-13T14:06:34;100132.53;;;29.21;21.34
62111;BME280;48102;47.526;19.072;2023-03-13T14:12:46;100131.66;;;24.39;25.73
62111;BME280;48102;47.526;19.072;2023-03-13T14:15:53;100140.41;;;22.31;28.31
62111;BME280;48102;47.526;19.072;2023-03-13T14:18:56;100140.66;;;21.48;29.06
62111;BME280;48102;47.526;19.072;2023-03-13T14:22:00;100139.53;;;20.95;30.23
62111;BME280;48102;47.526;19.072;2023-03-13T14:25:04;100131.50;;;24.16;26.89
62111;BME280;48102;47.526;19.072;2023-03-13T14:28:15;100139.91;;;27.29;22.97
62111;BME280;48102;47.526;19.072;2023-03-13T14:31:31;100147.78;;;29.96;20.52
62111;BME280;48102;47.526;19.072;2023-03-13T14:34:35;100136.00;;;26.58;23.40
62111;BME280;48102;47.526;19.072;2023-03-13T14:37:43;100127.69;;;23.43;27.19
62111;BME280;48102;47.526;19.072;2023-03-13T14:40:48;100125.25;;;22.47;28.41
62111;BME280;48102;47.526;19.072;2023-03-13T14:43:51;100139.44;;;22.14;28.70
62111;BME280;48102;47.526;19.072;2023-03-13T14:46:59;100142.34;;;21.67;30.14
62111;BME280;48102;47.526;19.072;2023-03-13T14:50:08;100119.66;;;22.93;28.60
62111;BME280;48102;47.526;19.072;2023-03-13T14:53:17;100134.12;;;22.74;28.48
62111;BME280;48102;47.526;19.072;2023-03-13T14:56:37;100128.03;;;21.94;29.73
62111;BME280;48102;47.526;19.072;2023-03-13T14:59:44;100132.63;;;22.97;29.33
62111;BME280;48102;47.526;19.072;2023-03-13T15:02:46;100117.97;;;24.57;26.71
62111;BME280;48102;47.526;19.072;2023-03-13T15:09:21;100126.78;;;21.35;30.80
62111;BME280;48102;47.526;19.072;2023-03-13T15:12:25;100115.09;;;19.75;33.48
62111;BME280;48102;47.526;19.072;2023-03-13T15:15:30;100112.13;;;18.99;35.02
62111;BME280;48102;47.526;19.072;2023-03-13T15:18:33;100101.75;;;19.66;34.20
62111;BME280;48102;47.526;19.072;2023-03-13T15:21:36;100095.84;;;21.40;31.85
62111;BME280;48102;47.526;19.072;2023-03-13T15:24:41;100084.97;;;21.60;30.92
62111;BME280;48102;47.526;19.072;2023-03-13T15:27:49;100078.53;;;20.79;32.50
62111;BME280;48102;47.526;19.072;2023-03-13T15:30:53;100074.56;;;19.99;33.52
62111;BME280;48102;47.526;19.072;2023-03-13T15:33:58;100075.97;;;19.94;33.65
62111;BME280;48102;47.526;19.072;2023-03-13T15:37:01;100074.53;;;19.51;34.63
62111;BME280;48102;47.526;19.072;2023-03-13T15:40:14;100077.72;;;18.66;35.94
62111;BME280;48102;47.526;19.072;2023-03-13T15:43:19;100075.78;;;17.42;37.74
62111;BME280;48102;47.526;19.072;2023-03-13T15:46:22;100059.81;;;16.88;38.99
62111;BME280;48102;47.526;19.072;2023-03-13T15:49:27;100063.22;;;16.56;40.26
62111;BME280;48102;47.526;19.072;2023-03-13T15:52:30;100042.75;;;16.23;40.94
62111;BME280;48102;47.526;19.072;2023-03-13T15:55:33;100045.84;;;15.83;41.47
62111;BME280;48102;47.526;19.072;2023-03-13T15:58:36;100045.00;;;15.59;41.95
62111;BME280;48102;47.526;19.072;2023-03-13T16:01:40;100047.97;;;15.19;42.87
62111;BME280;48102;47.526;19.072;2023-03-13T16:04:44;100059.78;;;14.91;43.45
62111;BME280;48102;47.526;19.072;2023-03-13T16:07:47;100060.00;;;14.88;43.91
62111;BME280;48102;47.526;19.072;2023-03-13T16:10:51;100055.84;;;14.60;44.62
62111;BME280;48102;47.526;19.072;2023-03-13T16:13:55;100050.22;;;14.51;45.27
62111;BME280;48102;47.526;19.072;2023-03-13T16:16:59;100053.69;;;14.39;45.16
62111;BME280;48102;47.526;19.072;2023-03-13T16:20:05;100048.53;;;14.25;46.43
62111;BME280;48102;47.526;19.072;2023-03-13T16:23:13;100049.69;;;14.08;46.95
62111;BME280;48102;47.526;19.072;2023-03-13T16:26:17;100046.41;;;14.04;47.31
62111;BME280;48102;47.526;19.072;2023-03-13T16:29:20;100045.03;;;13.99;48.19
62111;BME280;48102;47.526;19.072;2023-03-13T16:32:23;100038.75;;;13.87;47.95
